sensor_id;sensor_type;location;lat;lon;timestamp;temperature;humidity
31379;DHT22;61664;48.112;11.662;2022-11-04T00:01:44;14.80;63.60
31379;DHT22;61664;48.112;11.662;2022-11-04T00:04:14;14.80;63.60
31379;DHT22;61664;48.112;11.662;2022-11-04T00:06:43;14.90;63.50
31379;DHT22;61664;48.112;11.662;2022-11-04T00:09:12;14.90;63.10
31379;DHT22;61664;48.112;11.662;2022-11-04T00:11:45;14.90;62.80
31379;DHT22;61664;48.112;11.662;2022-11-04T00:14:31;14.90;62.30
31379;DHT22;61664;48.112;11.662;2022-11-04T00:16:59;15.00;62.10
31379;DHT22;61664;48.112;11.662;2022-11-04T00:19:46;14.90;61.90
31379;DHT22;61664;48.112;11.662;2022-11-04T00:22:32;15.00;62.00
31379;DHT22;61664;48.112;11.662;2022-11-04T00:25:18;15.00;62.10
31379;DHT22;61664;48.112;11.662;2022-11-04T00:28:12;15.00;61.80
31379;DHT22;61664;48.112;11.662;2022-11-04T00:31:01;15.00;61.60
31379;DHT22;61664;48.112;11.662;2022-11-04T00:33:48;14.90;61.70
31379;DHT22;61664;48.112;11.662;2022-11-04T00:36:17;14.90;61.60
31379;DHT22;61664;48.112;11.662;2022-11-04T00:38:44;14.90;61.60
31379;DHT22;61664;48.112;11.662;2022-11-04T00:41:11;14.90;61.50
31379;DHT22;61664;48.112;11.662;2022-11-04T00:43:55;14.90;61.60
31379;DHT22;61664;48.112;11.662;2022-11-04T00:46:23;14.80;61.80
31379;DHT22;61664;48.112;11.662;2022-11-04T00:48:50;14.80;61.40
31379;DHT22;61664;48.112;11.662;2022-11-04T00:51:17;14.80;61.40
31379;DHT22;61664;48.112;11.662;2022-11-04T00:53:45;14.70;61.30
31379;DHT22;61664;48.112;11.662;2022-11-04T00:56:12;14.60;61.30
31379;DHT22;61664;48.112;11.662;2022-11-04T00:58:39;14.60;61.20
31379;DHT22;61664;48.112;11.662;2022-11-04T01:01:07;14.50;61.30
31379;DHT22;61664;48.112;11.662;2022-11-04T01:03:35;14.40;61.50
31379;DHT22;61664;48.112;11.662;2022-11-04T01:06:03;14.30;61.60
31379;DHT22;61664;48.112;11.662;2022-11-04T01:08:30;14.10;62.30
31379;DHT22;61664;48.112;11.662;2022-11-04T01:11:03;14.00;63.20
31379;DHT22;61664;48.112;11.662;2022-11-04T01:13:31;13.80;64.20
31379;DHT22;61664;48.112;11.662;2022-11-04T01:16:04;13.70;64.80
31379;DHT22;61664;48.112;11.662;2022-11-04T01:18:33;13.50;65.60
31379;DHT22;61664;48.112;11.662;2022-11-04T01:21:04;13.40;66.20
31379;DHT22;61664;48.112;11.662;2022-11-04T01:23:33;13.20;67.00
31379;DHT22;61664;48.112;11.662;2022-11-04T01:26:04;13.10;67.40
31379;DHT22;61664;48.112;11.662;2022-11-04T01:28:31;13.00;68.10
31379;DHT22;61664;48.112;11.662;2022-11-04T01:30:59;12.90;68.80
31379;DHT22;61664;48.112;11.662;2022-11-04T01:33:31;12.80;68.60
31379;DHT22;61664;48.112;11.662;2022-11-04T01:35:59;12.70;69.20
31379;DHT22;61664;48.112;11.662;2022-11-04T01:38:27;12.60;69.70
31379;DHT22;61664;48.112;11.662;2022-11-04T01:40:54;12.50;70.00
31379;DHT22;61664;48.112;11.662;2022-11-04T01:43:22;12.40;70.30
31379;DHT22;61664;48.112;11.662;2022-11-04T01:45:56;12.30;70.60
31379;DHT22;61664;48.112;11.662;2022-11-04T01:48:31;12.30;71.40
31379;DHT22;61664;48.112;11.662;2022-11-04T01:51:00;12.20;71.80
31379;DHT22;61664;48.112;11.662;2022-11-04T01:53:33;12.20;71.80
31379;DHT22;61664;48.112;11.662;2022-11-04T01:56:06;12.10;72.10
31379;DHT22;61664;48.112;11.662;2022-11-04T01:58:46;12.10;72.40
31379;DHT22;61664;48.112;11.662;2022-11-04T02:01:17;12.10;72.50
31379;DHT22;61664;48.112;11.662;2022-11-04T02:03:49;12.00;72.70
31379;DHT22;61664;48.112;11.662;2022-11-04T02:06:20;12.00;72.90
31379;DHT22;61664;48.112;11.662;2022-11-04T02:08:48;12.00;73.10
31379;DHT22;61664;48.112;11.662;2022-11-04T02:11:15;12.00;73.10
31379;DHT22;61664;48.112;11.662;2022-11-04T02:14:02;12.00;73.30
31379;DHT22;61664;48.112;11.662;2022-11-04T02:16:39;11.90;73.30
31379;DHT22;61664;48.112;11.662;2022-11-04T02:22:09;12.00;73.70
31379;DHT22;61664;48.112;11.662;2022-11-04T02:31:30;11.90;73.00
31379;DHT22;61664;48.112;11.662;2022-11-04T02:37:27;11.90;72.90
31379;DHT22;61664;48.112;11.662;2022-11-04T02:43:43;11.90;73.20
31379;DHT22;61664;48.112;11.662;2022-11-04T02:51:38;11.90;73.80
31379;DHT22;61664;48.112;11.662;2022-11-04T02:54:21;11.80;73.70
31379;DHT22;61664;48.112;11.662;2022-11-04T02:56:55;11.90;73.90
31379;DHT22;61664;48.112;11.662;2022-11-04T02:59:45;11.80;74.20
31379;DHT22;61664;48.112;11.662;2022-11-04T03:02:18;11.90;73.90
31379;DHT22;61664;48.112;11.662;2022-11-04T03:04:50;11.80;74.30
31379;DHT22;61664;48.112;11.662;2022-11-04T03:07:23;11.90;74.50
31379;DHT22;61664;48.112;11.662;2022-11-04T03:09:59;11.80;74.30
31379;DHT22;61664;48.112;11.662;2022-11-04T03:12:38;11.80;73.90
31379;DHT22;61664;48.112;11.662;2022-11-04T03:15:18;11.90;73.90
31379;DHT22;61664;48.112;11.662;2022-11-04T03:20:41;11.80;74.00
31379;DHT22;61664;48.112;11.662;2022-11-04T03:23:12;11.80;74.00
31379;DHT22;61664;48.112;11.662;2022-11-04T03:25:45;11.80;74.00
31379;DHT22;61664;48.112;11.662;2022-11-04T03:31:23;11.80;74.10
31379;DHT22;61664;48.112;11.662;2022-11-04T03:33:58;11.80;73.40
31379;DHT22;61664;48.112;11.662;2022-11-04T03:36:25;11.80;73.80
31379;DHT22;61664;48.112;11.662;2022-11-04T03:38:53;11.80;73.90
31379;DHT22;61664;48.112;11.662;2022-11-04T03:41:37;11.80;73.80
31379;DHT22;61664;48.112;11.662;2022-11-04T03:44:12;11.80;72.80
31379;DHT22;61664;48.112;11.662;2022-11-04T03:46:39;11.80;73.90
31379;DHT22;61664;48.112;11.662;2022-11-04T03:49:07;11.80;73.80
31379;DHT22;61664;48.112;11.662;2022-11-04T03:51:35;11.80;73.90
31379;DHT22;61664;48.112;11.662;2022-11-04T03:54:02;11.80;74.00
31379;DHT22;61664;48.112;11.662;2022-11-04T04:00:06;11.80;72.80
31379;DHT22;61664;48.112;11.662;2022-11-04T04:03:01;11.80;73.10
31379;DHT22;61664;48.112;11.662;2022-11-04T04:05:54;11.80;73.90
31379;DHT22;61664;48.112;11.662;2022-11-04T04:11:38;11.80;73.30
31379;DHT22;61664;48.112;11.662;2022-11-04T04:17:35;11.80;73.20
31379;DHT22;61664;48.112;11.662;2022-11-04T04:20:06;11.80;72.60
31379;DHT22;61664;48.112;11.662;2022-11-04T04:22:42;11.80;74.20
31379;DHT22;61664;48.112;11.662;2022-11-04T04:25:14;11.80;74.10
31379;DHT22;61664;48.112;11.662;2022-11-04T04:28:01;11.80;74.30
31379;DHT22;61664;48.112;11.662;2022-11-04T04:30:29;11.80;74.30
31379;DHT22;61664;48.112;11.662;2022-11-04T04:33:00;11.80;74.30
31379;DHT22;61664;48.112;11.662;2022-11-04T04:35:35;11.80;74.30
31379;DHT22;61664;48.112;11.662;2022-11-04T04:38:25;11.80;74.40
31379;DHT22;61664;48.112;11.662;2022-11-04T04:41:25;11.90;73.90
31379;DHT22;61664;48.112;11.662;2022-11-04T04:44:25;11.80;73.40
31379;DHT22;61664;48.112;11.662;2022-11-04T04:47:22;11.80;72.70
31379;DHT22;61664;48.112;11.662;2022-11-04T04:49:57;11.80;72.50
31379;DHT22;61664;48.112;11.662;2022-11-04T04:52:52;11.80;73.30
31379;DHT22;61664;48.112;11.662;2022-11-04T04:55:22;11.80;71.50
31379;DHT22;61664;48.112;11.662;2022-11-04T04:57:49;11.80;73.90
31379;DHT22;61664;48.112;11.662;2022-11-04T05:00:18;11.90;73.90
31379;DHT22;61664;48.112;11.662;2022-11-04T05:02:47;11.80;73.50
31379;DHT22;61664;48.112;11.662;2022-11-04T05:05:15;11.80;73.60
31379;DHT22;61664;48.112;11.662;2022-11-04T05:07:42;11.80;73.70
31379;DHT22;61664;48.112;11.662;2022-11-04T05:10:11;11.90;73.60
31379;DHT22;61664;48.112;11.662;2022-11-04T05:12:40;11.90;73.30
31379;DHT22;61664;48.112;11.662;2022-11-04T05:15:26;11.90;73.10
31379;DHT22;61664;48.112;11.662;2022-11-04T05:17:56;11.90;73.60
31379;DHT22;61664;48.112;11.662;2022-11-04T05:20:25;11.90;72.90
31379;DHT22;61664;48.112;11.662;2022-11-04T05:22:53;11.80;72.80
31379;DHT22;61664;48.112;11.662;2022-11-04T05:25:20;11.80;72.70
31379;DHT22;61664;48.112;11.662;2022-11-04T05:27:47;11.80;72.90
31379;DHT22;61664;48.112;11.662;2022-11-04T05:30:14;11.70;73.00
31379;DHT22;61664;48.112;11.662;2022-11-04T05:32:41;11.70;72.90
31379;DHT22;61664;48.112;11.662;2022-11-04T05:35:08;11.70;72.90
31379;DHT22;61664;48.112;11.662;2022-11-04T05:37:37;11.70;72.90
31379;DHT22;61664;48.112;11.662;2022-11-04T05:40:04;11.60;73.20
31379;DHT22;61664;48.112;11.662;2022-11-04T05:42:31;11.60;73.10
31379;DHT22;61664;48.112;11.662;2022-11-04T05:44:58;11.60;73.10
31379;DHT22;61664;48.112;11.662;2022-11-04T05:47:25;11.50;73.10
31379;DHT22;61664;48.112;11.662;2022-11-04T05:49:52;11.50;73.20
31379;DHT22;61664;48.112;11.662;2022-11-04T05:52:19;11.50;73.30
31379;DHT22;61664;48.112;11.662;2022-11-04T05:54:46;11.50;73.50
31379;DHT22;61664;48.112;11.662;2022-11-04T05:57:13;11.40;73.40
31379;DHT22;61664;48.112;11.662;2022-11-04T05:59:40;11.40;73.50
31379;DHT22;61664;48.112;11.662;2022-11-04T06:02:07;11.40;73.50
31379;DHT22;61664;48.112;11.662;2022-11-04T06:04:34;11.40;73.80
31379;DHT22;61664;48.112;11.662;2022-11-04T06:07:01;11.40;74.10
31379;DHT22;61664;48.112;11.662;2022-11-04T06:09:28;11.30;74.10
31379;DHT22;61664;48.112;11.662;2022-11-04T06:12:12;11.30;74.30
31379;DHT22;61664;48.112;11.662;2022-11-04T06:14:43;11.30;74.00
31379;DHT22;61664;48.112;11.662;2022-11-04T06:17:15;11.30;74.10
31379;DHT22;61664;48.112;11.662;2022-11-04T06:19:43;11.30;74.10
31379;DHT22;61664;48.112;11.662;2022-11-04T06:22:11;11.30;74.30
31379;DHT22;61664;48.112;11.662;2022-11-04T06:24:39;11.30;74.30
31379;DHT22;61664;48.112;11.662;2022-11-04T06:27:07;11.20;74.20
31379;DHT22;61664;48.112;11.662;2022-11-04T06:29:36;11.20;74.30
31379;DHT22;61664;48.112;11.662;2022-11-04T06:32:11;11.20;74.40
31379;DHT22;61664;48.112;11.662;2022-11-04T06:34:40;11.20;74.30
31379;DHT22;61664;48.112;11.662;2022-11-04T06:37:07;11.10;74.30
31379;DHT22;61664;48.112;11.662;2022-11-04T06:39:35;11.10;74.40
31379;DHT22;61664;48.112;11.662;2022-11-04T06:42:03;11.00;74.50
31379;DHT22;61664;48.112;11.662;2022-11-04T06:44:30;11.00;75.00
31379;DHT22;61664;48.112;11.662;2022-11-04T06:46:59;10.90;75.50
31379;DHT22;61664;48.112;11.662;2022-11-04T06:49:27;10.90;75.60
31379;DHT22;61664;48.112;11.662;2022-11-04T06:51:54;10.90;75.90
31379;DHT22;61664;48.112;11.662;2022-11-04T06:54:21;10.80;76.10
31379;DHT22;61664;48.112;11.662;2022-11-04T06:56:48;10.80;76.20
31379;DHT22;61664;48.112;11.662;2022-11-04T06:59:16;10.80;76.30
31379;DHT22;61664;48.112;11.662;2022-11-04T07:01:45;10.90;76.60
31379;DHT22;61664;48.112;11.662;2022-11-04T07:04:13;10.80;76.70
31379;DHT22;61664;48.112;11.662;2022-11-04T07:06:43;10.70;76.90
31379;DHT22;61664;48.112;11.662;2022-11-04T07:09:12;10.80;77.20
31379;DHT22;61664;48.112;11.662;2022-11-04T07:11:41;10.70;77.40
31379;DHT22;61664;48.112;11.662;2022-11-04T07:14:10;10.80;77.70
31379;DHT22;61664;48.112;11.662;2022-11-04T07:16:37;10.80;77.90
31379;DHT22;61664;48.112;11.662;2022-11-04T07:19:05;10.80;78.10
31379;DHT22;61664;48.112;11.662;2022-11-04T07:21:32;10.80;78.30
31379;DHT22;61664;48.112;11.662;2022-11-04T07:24:00;10.80;78.60
31379;DHT22;61664;48.112;11.662;2022-11-04T07:26:27;10.80;78.90
31379;DHT22;61664;48.112;11.662;2022-11-04T07:28:54;10.80;79.00
31379;DHT22;61664;48.112;11.662;2022-11-04T07:31:21;10.80;79.10
31379;DHT22;61664;48.112;11.662;2022-11-04T07:33:48;10.80;79.30
31379;DHT22;61664;48.112;11.662;2022-11-04T07:36:22;10.80;79.30
31379;DHT22;61664;48.112;11.662;2022-11-04T07:38:48;10.80;79.30
31379;DHT22;61664;48.112;11.662;2022-11-04T07:41:16;10.80;79.60
31379;DHT22;61664;48.112;11.662;2022-11-04T07:43:50;10.80;79.70
31379;DHT22;61664;48.112;11.662;2022-11-04T07:46:18;10.80;79.70
31379;DHT22;61664;48.112;11.662;2022-11-04T07:48:46;10.80;80.20
31379;DHT22;61664;48.112;11.662;2022-11-04T07:51:15;10.80;80.40
31379;DHT22;61664;48.112;11.662;2022-11-04T07:53:44;10.80;80.30
31379;DHT22;61664;48.112;11.662;2022-11-04T07:56:12;10.90;80.50
31379;DHT22;61664;48.112;11.662;2022-11-04T07:58:40;10.90;80.00
31379;DHT22;61664;48.112;11.662;2022-11-04T08:01:10;10.90;79.70
31379;DHT22;61664;48.112;11.662;2022-11-04T08:03:40;10.80;79.70
31379;DHT22;61664;48.112;11.662;2022-11-04T08:10:13;10.80;79.10
31379;DHT22;61664;48.112;11.662;2022-11-04T08:12:40;10.80;80.40
31379;DHT22;61664;48.112;11.662;2022-11-04T08:15:07;10.80;80.70
31379;DHT22;61664;48.112;11.662;2022-11-04T08:17:34;10.80;80.80
31379;DHT22;61664;48.112;11.662;2022-11-04T08:20:01;10.80;80.70
31379;DHT22;61664;48.112;11.662;2022-11-04T08:26:35;10.80;80.40
31379;DHT22;61664;48.112;11.662;2022-11-04T08:29:07;10.80;81.20
31379;DHT22;61664;48.112;11.662;2022-11-04T08:31:35;10.80;81.20
31379;DHT22;61664;48.112;11.662;2022-11-04T08:34:03;10.80;81.30
31379;DHT22;61664;48.112;11.662;2022-11-04T08:36:34;10.80;81.30
31379;DHT22;61664;48.112;11.662;2022-11-04T08:39:06;10.80;81.20
31379;DHT22;61664;48.112;11.662;2022-11-04T08:41:38;10.80;81.10
31379;DHT22;61664;48.112;11.662;2022-11-04T08:44:07;10.80;81.30
31379;DHT22;61664;48.112;11.662;2022-11-04T08:46:36;10.90;81.40
31379;DHT22;61664;48.112;11.662;2022-11-04T08:49:05;10.90;81.50
31379;DHT22;61664;48.112;11.662;2022-11-04T08:51:38;10.90;81.30
31379;DHT22;61664;48.112;11.662;2022-11-04T08:54:07;10.80;81.00
31379;DHT22;61664;48.112;11.662;2022-11-04T08:56:37;10.90;81.20
31379;DHT22;61664;48.112;11.662;2022-11-04T08:59:05;10.80;81.50
31379;DHT22;61664;48.112;11.662;2022-11-04T09:01:34;10.80;81.40
31379;DHT22;61664;48.112;11.662;2022-11-04T09:04:03;10.80;81.30
31379;DHT22;61664;48.112;11.662;2022-11-04T09:06:36;10.80;81.40
31379;DHT22;61664;48.112;11.662;2022-11-04T09:09:07;10.80;81.00
31379;DHT22;61664;48.112;11.662;2022-11-04T09:11:38;10.80;81.20
31379;DHT22;61664;48.112;11.662;2022-11-04T09:14:09;10.80;81.20
31379;DHT22;61664;48.112;11.662;2022-11-04T09:16:37;10.70;80.80
31379;DHT22;61664;48.112;11.662;2022-11-04T09:19:05;10.70;81.10
31379;DHT22;61664;48.112;11.662;2022-11-04T09:21:32;10.70;81.70
31379;DHT22;61664;48.112;11.662;2022-11-04T09:23:59;10.70;81.80
31379;DHT22;61664;48.112;11.662;2022-11-04T09:26:27;10.70;81.60
31379;DHT22;61664;48.112;11.662;2022-11-04T09:28:55;10.70;81.80
31379;DHT22;61664;48.112;11.662;2022-11-04T09:31:24;10.70;81.80
31379;DHT22;61664;48.112;11.662;2022-11-04T09:33:54;10.70;81.40
31379;DHT22;61664;48.112;11.662;2022-11-04T09:36:22;10.70;81.30
31379;DHT22;61664;48.112;11.662;2022-11-04T09:38:49;10.70;81.40
31379;DHT22;61664;48.112;11.662;2022-11-04T09:47:41;10.60;79.70
31379;DHT22;61664;48.112;11.662;2022-11-04T09:50:20;10.60;81.70
31379;DHT22;61664;48.112;11.662;2022-11-04T09:52:54;10.60;81.50
31379;DHT22;61664;48.112;11.662;2022-11-04T09:55:48;10.50;82.00
31379;DHT22;61664;48.112;11.662;2022-11-04T09:58:20;10.60;81.20
31379;DHT22;61664;48.112;11.662;2022-11-04T10:07:46;10.60;80.70
31379;DHT22;61664;48.112;11.662;2022-11-04T10:10:27;10.70;81.20
31379;DHT22;61664;48.112;11.662;2022-11-04T10:13:10;10.70;82.80
31379;DHT22;61664;48.112;11.662;2022-11-04T10:16:00;10.70;81.80
31379;DHT22;61664;48.112;11.662;2022-11-04T10:18:49;10.60;81.00
31379;DHT22;61664;48.112;11.662;2022-11-04T10:22:01;10.60;81.30
31379;DHT22;61664;48.112;11.662;2022-11-04T10:27:48;10.60;81.20
31379;DHT22;61664;48.112;11.662;2022-11-04T10:30:19;10.60;81.90
31379;DHT22;61664;48.112;11.662;2022-11-04T10:35:56;10.60;82.60
31379;DHT22;61664;48.112;11.662;2022-11-04T10:38:47;10.60;83.90
31379;DHT22;61664;48.112;11.662;2022-11-04T10:41:29;10.70;83.10
31379;DHT22;61664;48.112;11.662;2022-11-04T10:46:46;10.80;84.00
31379;DHT22;61664;48.112;11.662;2022-11-04T10:52:39;10.90;84.10
31379;DHT22;61664;48.112;11.662;2022-11-04T10:58:23;11.00;82.70
31379;DHT22;61664;48.112;11.662;2022-11-04T11:00:53;11.10;83.90
31379;DHT22;61664;48.112;11.662;2022-11-04T11:05:53;11.10;82.50
31379;DHT22;61664;48.112;11.662;2022-11-04T11:08:35;11.20;82.30
31379;DHT22;61664;48.112;11.662;2022-11-04T11:11:07;11.10;82.30
31379;DHT22;61664;48.112;11.662;2022-11-04T11:13:42;11.10;81.90
31379;DHT22;61664;48.112;11.662;2022-11-04T11:16:18;11.10;81.90
31379;DHT22;61664;48.112;11.662;2022-11-04T11:21:48;11.10;80.70
31379;DHT22;61664;48.112;11.662;2022-11-04T11:24:26;11.10;82.40
31379;DHT22;61664;48.112;11.662;2022-11-04T11:26:57;11.10;82.40
31379;DHT22;61664;48.112;11.662;2022-11-04T11:29:29;11.10;82.30
31379;DHT22;61664;48.112;11.662;2022-11-04T11:32:34;11.00;82.10
31379;DHT22;61664;48.112;11.662;2022-11-04T11:35:02;11.00;81.30
31379;DHT22;61664;48.112;11.662;2022-11-04T11:37:38;11.00;82.30
31379;DHT22;61664;48.112;11.662;2022-11-04T11:40:31;11.00;82.20
31379;DHT22;61664;48.112;11.662;2022-11-04T11:43:26;11.00;81.20
31379;DHT22;61664;48.112;11.662;2022-11-04T11:45:56;11.00;82.30
31379;DHT22;61664;48.112;11.662;2022-11-04T11:51:00;11.00;82.70
31379;DHT22;61664;48.112;11.662;2022-11-04T11:53:28;11.00;82.50
31379;DHT22;61664;48.112;11.662;2022-11-04T11:55:58;11.00;83.00
31379;DHT22;61664;48.112;11.662;2022-11-04T12:01:46;11.00;81.10
31379;DHT22;61664;48.112;11.662;2022-11-04T12:04:17;10.90;81.30
31379;DHT22;61664;48.112;11.662;2022-11-04T12:07:26;10.90;82.30
31379;DHT22;61664;48.112;11.662;2022-11-04T12:10:29;10.90;80.40
31379;DHT22;61664;48.112;11.662;2022-11-04T12:13:30;10.90;82.10
31379;DHT22;61664;48.112;11.662;2022-11-04T12:22:01;10.80;80.60
31379;DHT22;61664;48.112;11.662;2022-11-04T12:27:46;10.80;80.30
31379;DHT22;61664;48.112;11.662;2022-11-04T12:30:22;10.80;81.20
31379;DHT22;61664;48.112;11.662;2022-11-04T12:44:49;10.60;83.40
31379;DHT22;61664;48.112;11.662;2022-11-04T12:47:42;10.60;83.40
31379;DHT22;61664;48.112;11.662;2022-11-04T12:58:30;10.60;83.20
31379;DHT22;61664;48.112;11.662;2022-11-04T13:01:24;10.70;81.90
31379;DHT22;61664;48.112;11.662;2022-11-04T13:04:12;10.60;80.80
31379;DHT22;61664;48.112;11.662;2022-11-04T13:06:46;10.50;81.40
31379;DHT22;61664;48.112;11.662;2022-11-04T13:12:29;10.50;81.20
31379;DHT22;61664;48.112;11.662;2022-11-04T13:15:06;10.50;82.00
31379;DHT22;61664;48.112;11.662;2022-11-04T13:17:42;10.50;82.90
31379;DHT22;61664;48.112;11.662;2022-11-04T13:22:50;10.50;82.50
31379;DHT22;61664;48.112;11.662;2022-11-04T13:25:38;10.40;81.80
31379;DHT22;61664;48.112;11.662;2022-11-04T13:28:14;10.30;80.40
31379;DHT22;61664;48.112;11.662;2022-11-04T13:30:52;10.30;80.80
31379;DHT22;61664;48.112;11.662;2022-11-04T13:33:32;10.20;80.40
31379;DHT22;61664;48.112;11.662;2022-11-04T13:38:53;10.10;81.50
31379;DHT22;61664;48.112;11.662;2022-11-04T13:44:36;10.00;82.00
31379;DHT22;61664;48.112;11.662;2022-11-04T13:47:16;10.00;82.30
31379;DHT22;61664;48.112;11.662;2022-11-04T13:49:50;9.90;82.10
31379;DHT22;61664;48.112;11.662;2022-11-04T13:52:23;9.80;82.70
31379;DHT22;61664;48.112;11.662;2022-11-04T13:55:02;9.90;83.00
31379;DHT22;61664;48.112;11.662;2022-11-04T13:57:58;9.80;83.40
31379;DHT22;61664;48.112;11.662;2022-11-04T14:00:28;9.90;82.90
31379;DHT22;61664;48.112;11.662;2022-11-04T14:08:25;9.90;83.60
31379;DHT22;61664;48.112;11.662;2022-11-04T14:18:41;9.90;84.00
31379;DHT22;61664;48.112;11.662;2022-11-04T14:26:44;9.90;84.10
31379;DHT22;61664;48.112;11.662;2022-11-04T14:29:18;9.90;84.60
31379;DHT22;61664;48.112;11.662;2022-11-04T14:31:51;9.90;84.50
31379;DHT22;61664;48.112;11.662;2022-11-04T14:34:33;9.90;85.00
31379;DHT22;61664;48.112;11.662;2022-11-04T14:37:28;10.00;83.80
31379;DHT22;61664;48.112;11.662;2022-11-04T14:39:57;10.00;84.50
31379;DHT22;61664;48.112;11.662;2022-11-04T14:42:55;10.00;84.50
31379;DHT22;61664;48.112;11.662;2022-11-04T14:45:32;10.00;83.90
31379;DHT22;61664;48.112;11.662;2022-11-04T14:48:18;10.00;84.40
31379;DHT22;61664;48.112;11.662;2022-11-04T14:50:50;10.00;84.30
31379;DHT22;61664;48.112;11.662;2022-11-04T14:53:27;9.90;84.60
31379;DHT22;61664;48.112;11.662;2022-11-04T14:56:16;9.90;84.50
31379;DHT22;61664;48.112;11.662;2022-11-04T14:58:59;9.90;84.30
31379;DHT22;61664;48.112;11.662;2022-11-04T15:01:37;9.90;84.70
31379;DHT22;61664;48.112;11.662;2022-11-04T15:04:23;9.90;84.60
31379;DHT22;61664;48.112;11.662;2022-11-04T15:07:03;9.90;84.50
31379;DHT22;61664;48.112;11.662;2022-11-04T15:09:39;9.90;84.50
31379;DHT22;61664;48.112;11.662;2022-11-04T15:12:13;9.90;84.80
31379;DHT22;61664;48.112;11.662;2022-11-04T15:18:24;9.90;84.30
31379;DHT22;61664;48.112;11.662;2022-11-04T15:20:57;9.90;84.30
31379;DHT22;61664;48.112;11.662;2022-11-04T15:23:28;9.90;85.00
31379;DHT22;61664;48.112;11.662;2022-11-04T15:25:58;9.90;85.10
31379;DHT22;61664;48.112;11.662;2022-11-04T15:28:33;9.90;84.80
31379;DHT22;61664;48.112;11.662;2022-11-04T15:31:05;9.90;84.60
31379;DHT22;61664;48.112;11.662;2022-11-04T15:33:42;9.90;84.70
31379;DHT22;61664;48.112;11.662;2022-11-04T15:39:12;9.80;84.20
31379;DHT22;61664;48.112;11.662;2022-11-04T15:41:42;9.80;84.00
31379;DHT22;61664;48.112;11.662;2022-11-04T15:44:31;9.80;84.30
31379;DHT22;61664;48.112;11.662;2022-11-04T15:49:45;9.70;84.30
31379;DHT22;61664;48.112;11.662;2022-11-04T15:52:22;9.70;84.30
31379;DHT22;61664;48.112;11.662;2022-11-04T15:54:53;9.70;83.90
31379;DHT22;61664;48.112;11.662;2022-11-04T15:57:31;9.70;84.10
31379;DHT22;61664;48.112;11.662;2022-11-04T16:00:18;9.60;83.70
31379;DHT22;61664;48.112;11.662;2022-11-04T16:03:00;9.60;83.40
31379;DHT22;61664;48.112;11.662;2022-11-04T16:05:33;9.60;83.70
31379;DHT22;61664;48.112;11.662;2022-11-04T16:08:20;9.60;83.80
31379;DHT22;61664;48.112;11.662;2022-11-04T16:11:07;9.50;83.60
31379;DHT22;61664;48.112;11.662;2022-11-04T16:13:37;9.50;83.70
31379;DHT22;61664;48.112;11.662;2022-11-04T16:16:26;9.50;84.20
31379;DHT22;61664;48.112;11.662;2022-11-04T16:18:57;9.50;83.90
31379;DHT22;61664;48.112;11.662;2022-11-04T16:21:33;9.50;84.20
31379;DHT22;61664;48.112;11.662;2022-11-04T16:24:08;9.40;84.00
31379;DHT22;61664;48.112;11.662;2022-11-04T16:26:45;9.40;83.70
31379;DHT22;61664;48.112;11.662;2022-11-04T16:29:20;9.40;83.50
31379;DHT22;61664;48.112;11.662;2022-11-04T16:32:22;9.40;83.40
31379;DHT22;61664;48.112;11.662;2022-11-04T16:34:51;9.40;83.10
31379;DHT22;61664;48.112;11.662;2022-11-04T16:37:22;9.30;82.90
31379;DHT22;61664;48.112;11.662;2022-11-04T16:39:48;9.30;82.90
31379;DHT22;61664;48.112;11.662;2022-11-04T16:42:16;9.20;82.80
31379;DHT22;61664;48.112;11.662;2022-11-04T16:44:51;9.20;82.80
31379;DHT22;61664;48.112;11.662;2022-11-04T16:47:23;9.20;82.80
31379;DHT22;61664;48.112;11.662;2022-11-04T16:49:51;9.10;82.70
31379;DHT22;61664;48.112;11.662;2022-11-04T16:52:22;9.10;82.70
31379;DHT22;61664;48.112;11.662;2022-11-04T16:54:51;9.10;82.70
31379;DHT22;61664;48.112;11.662;2022-11-04T16:57:22;9.10;82.70
31379;DHT22;61664;48.112;11.662;2022-11-04T16:59:51;9.00;82.70
31379;DHT22;61664;48.112;11.662;2022-11-04T17:04:49;9.00;83.10
31379;DHT22;61664;48.112;11.662;2022-11-04T17:07:16;8.90;83.30
31379;DHT22;61664;48.112;11.662;2022-11-04T17:09:43;8.90;83.60
31379;DHT22;61664;48.112;11.662;2022-11-04T17:12:11;8.90;83.90
31379;DHT22;61664;48.112;11.662;2022-11-04T17:14:38;8.90;84.20
31379;DHT22;61664;48.112;11.662;2022-11-04T17:17:05;8.90;84.30
31379;DHT22;61664;48.112;11.662;2022-11-04T17:19:33;8.90;84.80
31379;DHT22;61664;48.112;11.662;2022-11-04T17:22:03;9.00;84.40
31379;DHT22;61664;48.112;11.662;2022-11-04T17:24:31;8.90;84.20
31379;DHT22;61664;48.112;11.662;2022-11-04T17:26:58;9.00;83.90
31379;DHT22;61664;48.112;11.662;2022-11-04T17:29:25;9.00;84.10
31379;DHT22;61664;48.112;11.662;2022-11-04T17:31:52;9.00;84.40
31379;DHT22;61664;48.112;11.662;2022-11-04T17:34:19;9.00;84.50
31379;DHT22;61664;48.112;11.662;2022-11-04T17:36:49;9.00;84.70
31379;DHT22;61664;48.112;11.662;2022-11-04T17:39:16;9.00;84.70
31379;DHT22;61664;48.112;11.662;2022-11-04T17:41:42;9.00;84.80
31379;DHT22;61664;48.112;11.662;2022-11-04T17:44:33;9.00;84.70
31379;DHT22;61664;48.112;11.662;2022-11-04T17:47:00;9.00;84.40
31379;DHT22;61664;48.112;11.662;2022-11-04T17:49:27;9.00;84.50
31379;DHT22;61664;48.112;11.662;2022-11-04T17:51:57;9.00;84.50
31379;DHT22;61664;48.112;11.662;2022-11-04T17:54:28;9.00;84.40
31379;DHT22;61664;48.112;11.662;2022-11-04T17:56:57;9.00;84.30
31379;DHT22;61664;48.112;11.662;2022-11-04T17:59:25;9.00;84.30
31379;DHT22;61664;48.112;11.662;2022-11-04T18:01:55;9.00;84.50
31379;DHT22;61664;48.112;11.662;2022-11-04T18:04:22;8.90;84.50
31379;DHT22;61664;48.112;11.662;2022-11-04T18:06:49;9.00;84.70
31379;DHT22;61664;48.112;11.662;2022-11-04T18:09:17;9.00;84.80
31379;DHT22;61664;48.112;11.662;2022-11-04T18:11:45;8.90;84.80
31379;DHT22;61664;48.112;11.662;2022-11-04T18:14:30;9.10;84.80
31379;DHT22;61664;48.112;11.662;2022-11-04T18:16:58;9.00;84.50
31379;DHT22;61664;48.112;11.662;2022-11-04T18:19:25;9.00;84.50
31379;DHT22;61664;48.112;11.662;2022-11-04T18:21:53;8.90;84.30
31379;DHT22;61664;48.112;11.662;2022-11-04T18:24:20;8.90;84.30
31379;DHT22;61664;48.112;11.662;2022-11-04T18:26:47;8.90;84.40
31379;DHT22;61664;48.112;11.662;2022-11-04T18:29:15;8.90;84.50
31379;DHT22;61664;48.112;11.662;2022-11-04T18:31:42;8.90;84.60
31379;DHT22;61664;48.112;11.662;2022-11-04T18:34:16;8.90;84.70
31379;DHT22;61664;48.112;11.662;2022-11-04T18:36:46;8.90;84.80